KIKG

Kleberg County Airport

Kingsville, Texas, USA
METAR KIKG 151935Z AUTO 14005KT 10SM CLR 30/17 A2974 RMK AO2 T02990166
Observed Flight Rules
Feb-15 @ 19:35 UTC (19 minutes ago) Visual Flight Rules
Wind Visibility Clouds
140° at 5 knots 10 miles
  • Clear skies
Temperatures Readings
Current 30°C / 86°F
Dewpoint 17°C / 63°F
Humidity 46%
Altimeter 29.74" Hg
Pressure 1007.12 hPa
Elevation 40
METAR KIKG 151935Z AUTO 14005KT 10SM CLR 30/17 A2974 RMK AO2 T02990166
Observed Flight Rules
Feb-15 @ 19:35 UTC
(19 minutes ago)
VFR
Wind Visibility
140° at 5 knots 10 miles
Clouds
  • Clear skies
Temperature Dewpoint
30°C / 86°F 17°C / 63°F
Humidity Altimeter Pressure
46% 29.74" Hg 1007.12 hPa